FWV3TG LGSK-LDDU
Flight info
| Callsign | FWV3TG |
|---|---|
| Flight time | 1h 10m |
| Altitude | 38000 |
| Route | IBIDI UL617 TSL UN130 TALAS DCT MAVAR DCT RETRA DCT MOKUN |
| Aircraft | B38M/M-SDE1FGHILORVWXY/HB1 |
Departure
| Time | 2026-05-06 17:36 |
|---|---|
| Airport | Skiathos Island National Airport (LGSK) |
Arrival
| Time | 2026-05-06 18:46 |
|---|---|
| Airport | Dubrovnik Ruđer Bošković Airport (LDDU) |
| Time | Latitude | Longitude | Altitude | Speed | Heading |
|---|---|---|---|---|---|
| 2026-05-06 17:03 | 39.17800 | 23.50194 | 40 ft | 0 kts | 288° |
| 2026-05-06 17:27 | 39.17794 | 23.50221 | 42 ft | 4 kts | 276° |
| 2026-05-06 17:27 | 39.17795 | 23.50255 | 39 ft | 4 kts | 252° |
| 2026-05-06 17:27 | 39.17805 | 23.50282 | 39 ft | 4 kts | 236° |
| 2026-05-06 17:27 | 39.17824 | 23.50302 | 38 ft | 4 kts | 195° |
| 2026-05-06 17:28 | 39.17850 | 23.50309 | 38 ft | 3 kts | 197° |
| 2026-05-06 17:28 | 39.17854 | 23.50310 | 38 ft | 0 kts | 199° |
| 2026-05-06 17:31 | 39.17852 | 23.50310 | 38 ft | 1 kts | 199° |
| 2026-05-06 17:31 | 39.17834 | 23.50301 | 38 ft | 5 kts | 199° |
| 2026-05-06 17:31 | 39.17780 | 23.50277 | 40 ft | 12 kts | 199° |
| 2026-05-06 17:32 | 39.17688 | 23.50248 | 41 ft | 12 kts | 197° |
| 2026-05-06 17:32 | 39.17609 | 23.50216 | 41 ft | 9 kts | 195° |
| 2026-05-06 17:32 | 39.17563 | 23.50252 | 41 ft | 9 kts | 135° |
| 2026-05-06 17:32 | 39.17518 | 23.50294 | 42 ft | 7 kts | 180° |
| 2026-05-06 17:33 | 39.17458 | 23.50262 | 41 ft | 15 kts | 204° |
| 2026-05-06 17:33 | 39.17323 | 23.50198 | 33 ft | 22 kts | 200° |
| 2026-05-06 17:33 | 39.17198 | 23.50139 | 29 ft | 18 kts | 198° |
| 2026-05-06 17:33 | 39.17096 | 23.50092 | 21 ft | 11 kts | 208° |
| 2026-05-06 17:34 | 39.17034 | 23.50037 | 14 ft | 9 kts | 181° |
| 2026-05-06 17:34 | 39.17022 | 23.50069 | 13 ft | 1 kts | 49° |
| 2026-05-06 17:34 | 39.17031 | 23.50070 | 14 ft | 3 kts | 3° |
| 2026-05-06 17:34 | 39.17050 | 23.50074 | 17 ft | 0 kts | 19° |
| 2026-05-06 17:35 | 39.17068 | 23.50082 | 19 ft | 22 kts | 20° |
| 2026-05-06 17:35 | 39.17511 | 23.50278 | 42 ft | 109 kts | 19° |
| 2026-05-06 17:36 | 39.19630 | 23.51201 | 898 ft | 176 kts | 20° |
| 2026-05-06 17:36 | 39.20793 | 23.51723 | 1822 ft | 180 kts | 21° |
| 2026-05-06 17:36 | 39.21595 | 23.52083 | 2196 ft | 192 kts | 20° |
| 2026-05-06 17:36 | 39.23409 | 23.52893 | 2987 ft | 219 kts | 19° |
| 2026-05-06 17:37 | 39.24842 | 23.53529 | 4074 ft | 216 kts | 18° |
| 2026-05-06 17:37 | 39.26255 | 23.54219 | 5093 ft | 221 kts | 29° |
| 2026-05-06 17:37 | 39.27330 | 23.55616 | 6085 ft | 222 kts | 62° |
| 2026-05-06 17:37 | 39.27695 | 23.57551 | 6979 ft | 227 kts | 92° |
| 2026-05-06 17:38 | 39.27293 | 23.59510 | 7882 ft | 229 kts | 121° |
| 2026-05-06 17:38 | 39.26630 | 23.60566 | 8444 ft | 231 kts | 142° |
| 2026-05-06 17:38 | 39.25218 | 23.61540 | 9337 ft | 232 kts | 162° |
| 2026-05-06 17:38 | 39.23094 | 23.62067 | 10417 ft | 238 kts | 179° |
| 2026-05-06 17:39 | 39.21437 | 23.61939 | 11210 ft | 241 kts | 189° |
| 2026-05-06 17:39 | 39.19839 | 23.61307 | 11953 ft | 242 kts | 215° |
| 2026-05-06 17:39 | 39.18672 | 23.59797 | 12703 ft | 241 kts | 243° |
| 2026-05-06 17:39 | 39.18185 | 23.57698 | 13160 ft | 253 kts | 271° |
| 2026-05-06 17:40 | 39.18338 | 23.56187 | 13438 ft | 263 kts | 290° |
| 2026-05-06 17:40 | 39.19287 | 23.54159 | 14000 ft | 273 kts | 316° |
| 2026-05-06 17:40 | 39.20923 | 23.52839 | 14470 ft | 287 kts | 342° |
| 2026-05-06 17:40 | 39.22940 | 23.52492 | 15076 ft | 297 kts | 353° |
| 2026-05-06 17:41 | 39.25697 | 23.52134 | 16072 ft | 302 kts | 352° |
| 2026-05-06 17:41 | 39.27795 | 23.51866 | 16862 ft | 305 kts | 352° |
| 2026-05-06 17:41 | 39.29229 | 23.51689 | 17389 ft | 307 kts | 352° |
| 2026-05-06 17:41 | 39.32058 | 23.51345 | 18402 ft | 310 kts | 352° |
| 2026-05-06 17:42 | 39.33488 | 23.51173 | 18823 ft | 313 kts | 352° |
| 2026-05-06 17:42 | 39.35665 | 23.50913 | 19454 ft | 316 kts | 352° |
| 2026-05-06 17:42 | 39.37858 | 23.50652 | 20114 ft | 318 kts | 352° |
| 2026-05-06 17:42 | 39.40068 | 23.50388 | 20738 ft | 320 kts | 352° |
| 2026-05-06 17:43 | 39.42287 | 23.49907 | 21094 ft | 329 kts | 339° |
| 2026-05-06 17:43 | 39.44485 | 23.48833 | 21194 ft | 347 kts | 338° |
| 2026-05-06 17:43 | 39.46802 | 23.47719 | 21350 ft | 362 kts | 338° |
| 2026-05-06 17:43 | 39.49197 | 23.46563 | 21744 ft | 370 kts | 338° |
| 2026-05-06 17:44 | 39.51576 | 23.45412 | 22377 ft | 371 kts | 338° |
| 2026-05-06 17:44 | 39.54008 | 23.44233 | 22920 ft | 375 kts | 338° |
| 2026-05-06 17:44 | 39.56459 | 23.43044 | 23522 ft | 377 kts | 338° |
| 2026-05-06 17:44 | 39.58925 | 23.41847 | 23992 ft | 380 kts | 338° |
| 2026-05-06 17:45 | 39.61417 | 23.40636 | 24424 ft | 384 kts | 338° |
| 2026-05-06 17:45 | 39.63926 | 23.39416 | 24883 ft | 387 kts | 338° |
| 2026-05-06 17:45 | 39.66453 | 23.38186 | 25327 ft | 389 kts | 337° |
| 2026-05-06 17:45 | 39.68998 | 23.36947 | 25762 ft | 392 kts | 337° |
| 2026-05-06 17:46 | 39.71564 | 23.35696 | 26190 ft | 395 kts | 337° |
| 2026-05-06 17:46 | 39.74145 | 23.34436 | 26622 ft | 398 kts | 337° |
| 2026-05-06 17:46 | 39.76709 | 23.33183 | 27032 ft | 400 kts | 337° |
| 2026-05-06 17:46 | 39.79326 | 23.31902 | 27446 ft | 403 kts | 337° |
| 2026-05-06 17:47 | 39.81963 | 23.30612 | 27836 ft | 406 kts | 337° |
| 2026-05-06 17:47 | 39.84619 | 23.29311 | 28236 ft | 409 kts | 337° |
| 2026-05-06 17:47 | 39.87290 | 23.28001 | 28625 ft | 412 kts | 337° |
| 2026-05-06 17:47 | 39.89980 | 23.26681 | 29007 ft | 415 kts | 337° |
| 2026-05-06 17:48 | 39.92688 | 23.25352 | 29383 ft | 417 kts | 337° |
| 2026-05-06 17:48 | 39.95414 | 23.24012 | 29762 ft | 420 kts | 337° |
| 2026-05-06 17:48 | 39.98120 | 23.22681 | 30111 ft | 423 kts | 337° |
| 2026-05-06 17:48 | 40.00878 | 23.21324 | 30425 ft | 425 kts | 337° |
| 2026-05-06 17:49 | 40.03648 | 23.19959 | 30783 ft | 426 kts | 337° |
| 2026-05-06 17:49 | 40.06427 | 23.18589 | 31116 ft | 428 kts | 337° |
| 2026-05-06 17:49 | 40.09216 | 23.17213 | 31430 ft | 430 kts | 337° |
| 2026-05-06 17:49 | 40.12020 | 23.15828 | 31749 ft | 432 kts | 337° |
| 2026-05-06 17:50 | 40.14833 | 23.14437 | 32076 ft | 433 kts | 337° |
| 2026-05-06 17:50 | 40.17654 | 23.13041 | 32455 ft | 433 kts | 337° |
| 2026-05-06 17:50 | 40.20468 | 23.11648 | 32900 ft | 432 kts | 337° |
| 2026-05-06 17:50 | 40.23237 | 23.10276 | 33328 ft | 430 kts | 337° |
| 2026-05-06 17:51 | 40.26034 | 23.08887 | 33746 ft | 429 kts | 337° |
| 2026-05-06 17:51 | 40.28822 | 23.07503 | 34170 ft | 428 kts | 337° |
| 2026-05-06 17:51 | 40.31602 | 23.06122 | 34513 ft | 427 kts | 337° |
| 2026-05-06 17:51 | 40.34382 | 23.04739 | 34828 ft | 427 kts | 337° |
| 2026-05-06 17:52 | 40.37160 | 23.03355 | 35142 ft | 427 kts | 337° |
| 2026-05-06 17:52 | 40.39941 | 23.01969 | 35466 ft | 427 kts | 337° |
| 2026-05-06 17:52 | 40.42711 | 23.00581 | 35770 ft | 426 kts | 335° |
| 2026-05-06 17:52 | 40.45233 | 22.98703 | 36061 ft | 421 kts | 319° |
| 2026-05-06 17:53 | 40.47273 | 22.95973 | 36353 ft | 419 kts | 309° |
| 2026-05-06 17:53 | 40.49127 | 22.93010 | 36560 ft | 420 kts | 308° |
| 2026-05-06 17:53 | 40.50954 | 22.90006 | 36831 ft | 420 kts | 308° |
| 2026-05-06 17:53 | 40.52757 | 22.86985 | 37105 ft | 420 kts | 307° |
| 2026-05-06 17:54 | 40.54548 | 22.83949 | 37368 ft | 420 kts | 307° |
| 2026-05-06 17:54 | 40.56328 | 22.80909 | 37623 ft | 420 kts | 307° |
| 2026-05-06 17:54 | 40.58104 | 22.77866 | 37875 ft | 419 kts | 306° |
| 2026-05-06 17:54 | 40.59856 | 22.74859 | 38036 ft | 420 kts | 306° |
| 2026-05-06 17:55 | 40.63405 | 22.68761 | 38016 ft | 418 kts | 306° |
| 2026-05-06 17:55 | 40.66938 | 22.62675 | 38018 ft | 418 kts | 306° |
| 2026-05-06 17:56 | 40.70467 | 22.56586 | 38017 ft | 418 kts | 306° |
| 2026-05-06 17:56 | 40.73971 | 22.50527 | 38014 ft | 418 kts | 306° |
| 2026-05-06 17:57 | 40.77495 | 22.44424 | 38017 ft | 419 kts | 306° |
| 2026-05-06 17:57 | 40.81026 | 22.38296 | 38018 ft | 419 kts | 306° |
| 2026-05-06 17:58 | 40.84550 | 22.32168 | 38018 ft | 419 kts | 306° |
| 2026-05-06 17:58 | 40.88074 | 22.26028 | 38034 ft | 419 kts | 306° |
| 2026-05-06 17:59 | 40.91570 | 22.19924 | 38022 ft | 419 kts | 306° |
| 2026-05-06 17:59 | 40.95085 | 22.13776 | 38041 ft | 419 kts | 306° |
| 2026-05-06 18:00 | 40.98589 | 22.07635 | 38035 ft | 416 kts | 305° |
| 2026-05-06 18:00 | 41.02074 | 22.01515 | 38031 ft | 417 kts | 305° |
| 2026-05-06 18:01 | 41.05538 | 21.95419 | 38045 ft | 418 kts | 305° |
| 2026-05-06 18:01 | 41.08771 | 21.89066 | 38058 ft | 414 kts | 299° |
| 2026-05-06 18:02 | 41.11691 | 21.82453 | 38019 ft | 416 kts | 299° |
| 2026-05-06 18:02 | 41.14586 | 21.75822 | 38033 ft | 414 kts | 299° |
| 2026-05-06 18:03 | 41.17439 | 21.69264 | 38020 ft | 413 kts | 298° |
| 2026-05-06 18:03 | 41.20306 | 21.62660 | 38015 ft | 413 kts | 298° |
| 2026-05-06 18:04 | 41.23171 | 21.56045 | 38026 ft | 414 kts | 298° |
| 2026-05-06 18:04 | 41.26035 | 21.49421 | 38024 ft | 413 kts | 298° |
| 2026-05-06 18:05 | 41.28701 | 21.43238 | 38022 ft | 413 kts | 298° |
| 2026-05-06 18:05 | 41.31553 | 21.36612 | 38026 ft | 413 kts | 298° |
| 2026-05-06 18:06 | 41.34402 | 21.29978 | 38028 ft | 413 kts | 298° |
| 2026-05-06 18:06 | 41.37242 | 21.23349 | 38028 ft | 412 kts | 298° |
| 2026-05-06 18:07 | 41.40080 | 21.16711 | 38031 ft | 413 kts | 298° |
| 2026-05-06 18:07 | 41.42895 | 21.10112 | 38049 ft | 411 kts | 298° |
| 2026-05-06 18:08 | 41.45708 | 21.03503 | 38064 ft | 410 kts | 298° |
| 2026-05-06 18:08 | 41.48523 | 20.96875 | 38045 ft | 410 kts | 298° |
| 2026-05-06 18:09 | 41.51333 | 20.90244 | 38042 ft | 410 kts | 298° |
| 2026-05-06 18:09 | 41.54119 | 20.83656 | 38021 ft | 409 kts | 298° |
| 2026-05-06 18:10 | 41.56916 | 20.77026 | 38063 ft | 411 kts | 297° |
| 2026-05-06 18:10 | 41.59711 | 20.70385 | 38059 ft | 410 kts | 297° |
| 2026-05-06 18:11 | 41.62506 | 20.63735 | 38056 ft | 410 kts | 297° |
| 2026-05-06 18:11 | 41.65298 | 20.57078 | 38023 ft | 410 kts | 298° |
| 2026-05-06 18:12 | 41.68224 | 20.50582 | 38083 ft | 411 kts | 301° |
| 2026-05-06 18:12 | 41.71308 | 20.44142 | 38075 ft | 410 kts | 301° |
| 2026-05-06 18:13 | 41.74354 | 20.37719 | 38074 ft | 408 kts | 300° |
| 2026-05-06 18:13 | 41.77393 | 20.31291 | 38067 ft | 408 kts | 300° |
| 2026-05-06 18:14 | 41.80407 | 20.24902 | 38078 ft | 409 kts | 300° |
| 2026-05-06 18:14 | 41.83446 | 20.18445 | 38077 ft | 410 kts | 300° |
| 2026-05-06 18:15 | 41.86485 | 20.11975 | 38098 ft | 409 kts | 300° |
| 2026-05-06 18:15 | 41.89499 | 20.05546 | 38079 ft | 406 kts | 300° |
| 2026-05-06 18:16 | 41.92500 | 19.99131 | 38086 ft | 406 kts | 300° |
| 2026-05-06 18:16 | 41.95481 | 19.92745 | 38087 ft | 407 kts | 300° |
| 2026-05-06 18:17 | 41.98480 | 19.86304 | 37965 ft | 406 kts | 300° |
| 2026-05-06 18:17 | 41.99976 | 19.83088 | 37688 ft | 406 kts | 300° |
| 2026-05-06 18:17 | 42.01470 | 19.79870 | 37447 ft | 406 kts | 300° |
| 2026-05-06 18:18 | 42.02960 | 19.76659 | 37222 ft | 404 kts | 300° |
| 2026-05-06 18:18 | 42.04446 | 19.73454 | 36970 ft | 404 kts | 300° |
| 2026-05-06 18:18 | 42.05912 | 19.70289 | 36732 ft | 404 kts | 300° |
| 2026-05-06 18:18 | 42.07395 | 19.67082 | 36491 ft | 401 kts | 300° |
| 2026-05-06 18:19 | 42.08851 | 19.63931 | 36114 ft | 393 kts | 300° |
| 2026-05-06 18:19 | 42.10288 | 19.60816 | 35573 ft | 390 kts | 300° |
| 2026-05-06 18:19 | 42.11726 | 19.57697 | 34994 ft | 395 kts | 300° |
| 2026-05-06 18:19 | 42.13177 | 19.54547 | 34414 ft | 397 kts | 300° |
| 2026-05-06 18:20 | 42.14633 | 19.51383 | 33849 ft | 398 kts | 300° |
| 2026-05-06 18:20 | 42.16087 | 19.48219 | 33262 ft | 397 kts | 300° |
| 2026-05-06 18:20 | 42.17517 | 19.45106 | 32733 ft | 394 kts | 300° |
| 2026-05-06 18:20 | 42.18948 | 19.41986 | 32211 ft | 390 kts | 300° |
| 2026-05-06 18:21 | 42.20369 | 19.38887 | 31686 ft | 387 kts | 300° |
| 2026-05-06 18:21 | 42.21777 | 19.35814 | 31186 ft | 384 kts | 300° |
| 2026-05-06 18:21 | 42.23053 | 19.32670 | 30619 ft | 381 kts | 290° |
| 2026-05-06 18:21 | 42.23923 | 19.29302 | 30090 ft | 379 kts | 289° |
| 2026-05-06 18:22 | 42.24815 | 19.25962 | 29536 ft | 377 kts | 289° |
| 2026-05-06 18:22 | 42.25691 | 19.22649 | 29017 ft | 373 kts | 289° |
| 2026-05-06 18:22 | 42.26554 | 19.19375 | 28541 ft | 380 kts | 289° |
| 2026-05-06 18:22 | 42.27441 | 19.15999 | 28014 ft | 384 kts | 289° |
| 2026-05-06 18:23 | 42.28336 | 19.12584 | 27528 ft | 386 kts | 289° |
| 2026-05-06 18:23 | 42.29229 | 19.09171 | 27036 ft | 385 kts | 289° |
| 2026-05-06 18:23 | 42.30118 | 19.05771 | 26546 ft | 383 kts | 288° |
| 2026-05-06 18:23 | 42.31001 | 19.02389 | 26057 ft | 381 kts | 288° |
| 2026-05-06 18:24 | 42.31879 | 18.99019 | 25584 ft | 379 kts | 288° |
| 2026-05-06 18:24 | 42.32752 | 18.95667 | 25107 ft | 378 kts | 288° |
| 2026-05-06 18:24 | 42.33610 | 18.92366 | 24661 ft | 376 kts | 288° |
| 2026-05-06 18:24 | 42.34474 | 18.89038 | 24200 ft | 375 kts | 288° |
| 2026-05-06 18:25 | 42.35334 | 18.85719 | 23754 ft | 373 kts | 288° |
| 2026-05-06 18:25 | 42.36190 | 18.82411 | 23236 ft | 372 kts | 288° |
| 2026-05-06 18:25 | 42.37041 | 18.79121 | 22770 ft | 370 kts | 288° |
| 2026-05-06 18:25 | 42.37886 | 18.75849 | 22340 ft | 367 kts | 287° |
| 2026-05-06 18:26 | 42.38724 | 18.72598 | 21913 ft | 365 kts | 287° |
| 2026-05-06 18:26 | 42.39556 | 18.69366 | 21497 ft | 363 kts | 287° |
| 2026-05-06 18:26 | 42.40382 | 18.66152 | 21074 ft | 361 kts | 287° |
| 2026-05-06 18:26 | 42.41193 | 18.62996 | 20691 ft | 359 kts | 287° |
| 2026-05-06 18:27 | 42.42009 | 18.59809 | 20279 ft | 358 kts | 287° |
| 2026-05-06 18:27 | 42.42823 | 18.56633 | 19896 ft | 356 kts | 287° |
| 2026-05-06 18:27 | 42.43630 | 18.53480 | 19494 ft | 353 kts | 287° |
| 2026-05-06 18:27 | 42.44431 | 18.50345 | 19100 ft | 351 kts | 287° |
| 2026-05-06 18:28 | 42.45403 | 18.47312 | 18672 ft | 354 kts | 300° |
| 2026-05-06 18:28 | 42.46828 | 18.44604 | 18299 ft | 352 kts | 302° |
| 2026-05-06 18:28 | 42.48242 | 18.41895 | 17874 ft | 352 kts | 302° |
| 2026-05-06 18:28 | 42.49637 | 18.39230 | 17476 ft | 351 kts | 302° |
| 2026-05-06 18:29 | 42.51046 | 18.36544 | 17098 ft | 349 kts | 302° |
| 2026-05-06 18:29 | 42.52445 | 18.33872 | 16715 ft | 347 kts | 302° |
| 2026-05-06 18:29 | 42.53839 | 18.31209 | 16336 ft | 346 kts | 302° |
| 2026-05-06 18:29 | 42.55148 | 18.28498 | 15903 ft | 342 kts | 292° |
| 2026-05-06 18:30 | 42.55744 | 18.25434 | 15514 ft | 334 kts | 270° |
| 2026-05-06 18:30 | 42.55474 | 18.22351 | 15156 ft | 328 kts | 251° |
| 2026-05-06 18:30 | 42.54683 | 18.19503 | 14809 ft | 326 kts | 247° |
| 2026-05-06 18:30 | 42.53835 | 18.16661 | 14409 ft | 325 kts | 246° |
| 2026-05-06 18:31 | 42.52967 | 18.13841 | 14085 ft | 321 kts | 246° |
| 2026-05-06 18:31 | 42.52105 | 18.11090 | 13860 ft | 314 kts | 246° |
| 2026-05-06 18:31 | 42.51369 | 18.08297 | 13266 ft | 319 kts | 259° |
| 2026-05-06 18:31 | 42.51480 | 18.05300 | 12763 ft | 324 kts | 283° |
| 2026-05-06 18:32 | 42.52459 | 18.02534 | 12324 ft | 328 kts | 296° |
| 2026-05-06 18:32 | 42.53550 | 17.99847 | 11956 ft | 321 kts | 294° |
| 2026-05-06 18:32 | 42.54596 | 17.97218 | 11666 ft | 312 kts | 295° |
| 2026-05-06 18:32 | 42.55589 | 17.94707 | 11488 ft | 299 kts | 294° |
| 2026-05-06 18:33 | 42.56548 | 17.92265 | 11384 ft | 290 kts | 295° |
| 2026-05-06 18:33 | 42.57497 | 17.89847 | 11145 ft | 290 kts | 295° |
| 2026-05-06 18:33 | 42.58443 | 17.87439 | 10831 ft | 288 kts | 295° |
| 2026-05-06 18:33 | 42.59383 | 17.85041 | 10524 ft | 287 kts | 295° |
| 2026-05-06 18:34 | 42.60319 | 17.82653 | 10207 ft | 286 kts | 295° |
| 2026-05-06 18:34 | 42.61249 | 17.80274 | 9886 ft | 285 kts | 294° |
| 2026-05-06 18:34 | 42.62175 | 17.77906 | 9528 ft | 283 kts | 294° |
| 2026-05-06 18:34 | 42.63078 | 17.75595 | 9186 ft | 279 kts | 294° |
| 2026-05-06 18:35 | 42.63972 | 17.73307 | 8920 ft | 270 kts | 294° |
| 2026-05-06 18:35 | 42.64836 | 17.71090 | 8676 ft | 261 kts | 294° |
| 2026-05-06 18:35 | 42.65694 | 17.68964 | 8437 ft | 253 kts | 300° |
| 2026-05-06 18:35 | 42.66971 | 17.67396 | 8304 ft | 247 kts | 332° |
| 2026-05-06 18:36 | 42.68607 | 17.66897 | 8287 ft | 243 kts | 0° |
| 2026-05-06 18:36 | 42.70252 | 17.67426 | 8265 ft | 245 kts | 24° |
| 2026-05-06 18:36 | 42.71796 | 17.68448 | 8249 ft | 248 kts | 26° |
| 2026-05-06 18:36 | 42.73332 | 17.69502 | 8071 ft | 246 kts | 27° |
| 2026-05-06 18:37 | 42.74788 | 17.70659 | 7845 ft | 247 kts | 42° |
| 2026-05-06 18:37 | 42.75800 | 17.72517 | 7444 ft | 247 kts | 72° |
| 2026-05-06 18:37 | 42.76073 | 17.74793 | 6993 ft | 246 kts | 99° |
| 2026-05-06 18:37 | 42.75612 | 17.77023 | 6566 ft | 247 kts | 116° |
| 2026-05-06 18:38 | 42.74875 | 17.79148 | 6171 ft | 250 kts | 120° |
| 2026-05-06 18:38 | 42.74087 | 17.81257 | 5852 ft | 250 kts | 121° |
| 2026-05-06 18:38 | 42.73283 | 17.83348 | 5591 ft | 248 kts | 121° |
| 2026-05-06 18:38 | 42.72496 | 17.85373 | 5441 ft | 233 kts | 121° |
| 2026-05-06 18:39 | 42.71774 | 17.87222 | 5366 ft | 211 kts | 121° |
| 2026-05-06 18:39 | 42.71112 | 17.88904 | 5245 ft | 199 kts | 121° |
| 2026-05-06 18:39 | 42.70481 | 17.90508 | 5128 ft | 186 kts | 122° |
| 2026-05-06 18:40 | 42.69332 | 17.93425 | 4954 ft | 171 kts | 123° |
| 2026-05-06 18:40 | 42.68769 | 17.94850 | 4883 ft | 171 kts | 122° |
| 2026-05-06 18:40 | 42.68205 | 17.96281 | 4815 ft | 172 kts | 123° |
| 2026-05-06 18:40 | 42.67643 | 17.97710 | 4702 ft | 171 kts | 122° |
| 2026-05-06 18:41 | 42.67081 | 17.99128 | 4567 ft | 170 kts | 121° |
| 2026-05-06 18:41 | 42.66531 | 18.00520 | 4392 ft | 169 kts | 121° |
| 2026-05-06 18:41 | 42.65980 | 18.01915 | 4208 ft | 167 kts | 122° |
| 2026-05-06 18:41 | 42.65437 | 18.03293 | 3997 ft | 164 kts | 122° |
| 2026-05-06 18:42 | 42.64901 | 18.04651 | 3805 ft | 163 kts | 121° |
| 2026-05-06 18:42 | 42.64366 | 18.06007 | 3601 ft | 162 kts | 121° |
| 2026-05-06 18:42 | 42.63835 | 18.07354 | 3403 ft | 161 kts | 121° |
| 2026-05-06 18:42 | 42.63307 | 18.08691 | 3190 ft | 160 kts | 121° |
| 2026-05-06 18:43 | 42.62784 | 18.10016 | 2970 ft | 158 kts | 120° |
| 2026-05-06 18:43 | 42.62272 | 18.11313 | 2775 ft | 158 kts | 120° |
| 2026-05-06 18:43 | 42.61756 | 18.12619 | 2556 ft | 157 kts | 120° |
| 2026-05-06 18:43 | 42.61260 | 18.13874 | 2381 ft | 142 kts | 120° |
| 2026-05-06 18:44 | 42.60808 | 18.15017 | 2192 ft | 134 kts | 120° |
| 2026-05-06 18:44 | 42.60371 | 18.16123 | 2019 ft | 132 kts | 120° |
| 2026-05-06 18:44 | 42.59934 | 18.17229 | 1830 ft | 134 kts | 120° |
| 2026-05-06 18:44 | 42.59492 | 18.18350 | 1660 ft | 136 kts | 121° |
| 2026-05-06 18:45 | 42.59042 | 18.19484 | 1461 ft | 136 kts | 120° |
| 2026-05-06 18:45 | 42.58607 | 18.20589 | 1259 ft | 131 kts | 118° |
| 2026-05-06 18:45 | 42.58190 | 18.21641 | 1086 ft | 127 kts | 118° |
| 2026-05-06 18:45 | 42.57763 | 18.22720 | 922 ft | 134 kts | 118° |
| 2026-05-06 18:46 | 42.57312 | 18.23849 | 754 ft | 137 kts | 117° |
| 2026-05-06 18:46 | 42.56865 | 18.24985 | 548 ft | 134 kts | 117° |
| 2026-05-06 18:46 | 42.56490 | 18.25936 | 538 ft | 85 kts | 118° |
| 2026-05-06 18:46 | 42.56312 | 18.26385 | 535 ft | 32 kts | 118° |
| 2026-05-06 18:47 | 42.56224 | 18.26608 | 536 ft | 18 kts | 126° |
| 2026-05-06 18:47 | 42.56151 | 18.26606 | 536 ft | 10 kts | 233° |
| 2026-05-06 18:47 | 42.56124 | 18.26539 | 536 ft | 1 kts | 242° |
| 2026-05-06 18:48 | 42.56124 | 18.26538 | 536 ft | 1 kts | 242° |
| 2026-05-06 18:49 | 42.56117 | 18.26519 | 536 ft | 4 kts | 242° |
| 2026-05-06 18:49 | 42.56101 | 18.26476 | 536 ft | 6 kts | 252° |
| 2026-05-06 18:49 | 42.56113 | 18.26413 | 536 ft | 8 kts | 296° |
| 2026-05-06 18:49 | 42.56133 | 18.26346 | 536 ft | 5 kts | 263° |
| 2026-05-06 18:50 | 42.56113 | 18.26320 | 536 ft | 3 kts | 207° |
| 2026-05-06 18:50 | 42.56097 | 18.26309 | 536 ft | 2 kts | 207° |
| 2026-05-06 18:50 | 42.56093 | 18.26305 | 536 ft | 0 kts | 207° |